createdAt,value
2022-10-22T00:00:11.759Z,99515.69
2022-10-22T00:02:39.810Z,99517.72
2022-10-22T00:05:06.964Z,99521.59
2022-10-22T00:07:33.869Z,99532.69
2022-10-22T00:10:00.970Z,99539.88
2022-10-22T00:12:28.004Z,99545.94
2022-10-22T00:14:54.794Z,99558.84
2022-10-22T00:17:21.732Z,99554.53
2022-10-22T00:19:48.516Z,99541.22
2022-10-22T00:22:15.263Z,99557.28
2022-10-22T00:24:42.209Z,99559.78
2022-10-22T00:27:11.602Z,99565.88
2022-10-22T00:29:38.328Z,99563.88
2022-10-22T00:32:06.464Z,99555.28
2022-10-22T00:34:33.559Z,99576.75
2022-10-22T00:37:00.366Z,99569.63
2022-10-22T00:39:28.735Z,99586.25
2022-10-22T00:41:57.459Z,99595.41
2022-10-22T00:45:07.336Z,99596.50
2022-10-22T00:47:40.060Z,99597.59
2022-10-22T00:50:13.182Z,99598.69
2022-10-22T00:52:40.662Z,99608.94
2022-10-22T00:55:07.935Z,99607.44
2022-10-22T00:57:35.644Z,99617.50
2022-10-22T01:00:03.711Z,99610.13
2022-10-22T01:02:30.645Z,99631.34
2022-10-22T01:04:57.414Z,99622.03
2022-10-22T01:07:24.858Z,99628.53
2022-10-22T01:10:13.189Z,99631.16
2022-10-22T01:12:45.709Z,99643.59
2022-10-22T01:15:21.456Z,99649.81
2022-10-22T01:18:00.186Z,99651.59
2022-10-22T01:20:57.819Z,99657.00
2022-10-22T01:23:44.800Z,99655.59
2022-10-22T01:26:42.399Z,99671.34
2022-10-22T01:29:13.882Z,99671.94
2022-10-22T01:31:46.380Z,99671.59
2022-10-22T01:34:16.916Z,99678.53
2022-10-22T01:36:44.889Z,99685.44
2022-10-22T01:39:14.805Z,99674.59
2022-10-22T01:41:45.601Z,99687.13
2022-10-22T01:44:24.374Z,99690.13
2022-10-22T01:46:58.196Z,99688.59
2022-10-22T01:49:47.533Z,99693.84
2022-10-22T01:52:30.515Z,99711.16
2022-10-22T01:55:15.529Z,99691.97
2022-10-22T01:57:54.193Z,99715.97
2022-10-22T02:00:21.537Z,99709.19
2022-10-22T02:02:50.893Z,99705.81
2022-10-22T02:05:41.065Z,99713.84
2022-10-22T02:08:32.849Z,99720.19
2022-10-22T02:11:01.274Z,99714.09
2022-10-22T02:13:37.184Z,99713.63
2022-10-22T02:16:08.289Z,99728.75
2022-10-22T02:18:39.459Z,99708.75
2022-10-22T02:23:35.735Z,99738.34
2022-10-22T02:26:20.116Z,99731.81
2022-10-22T02:29:07.009Z,99734.78
2022-10-22T02:31:39.183Z,99728.72
2022-10-22T02:34:11.353Z,99733.28
2022-10-22T02:36:39.408Z,99743.53
2022-10-22T02:39:07.911Z,99748.78
2022-10-22T02:41:35.432Z,99753.56
2022-10-22T02:44:03.214Z,99751.97
2022-10-22T02:46:30.056Z,99752.09
2022-10-22T02:48:56.771Z,99761.66
2022-10-22T02:51:23.601Z,99761.78
2022-10-22T02:53:50.382Z,99766.34
2022-10-22T02:56:17.625Z,99761.56
2022-10-22T02:58:44.328Z,99774.81
2022-10-22T03:01:13.748Z,99773.63
2022-10-22T03:03:42.876Z,99783.88
2022-10-22T03:06:09.648Z,99783.19
2022-10-22T03:08:36.448Z,99789.13
2022-10-22T03:11:03.314Z,99792.97
2022-10-22T03:13:30.030Z,99770.16
2022-10-22T03:15:57.077Z,99789.03
2022-10-22T03:18:23.873Z,99781.53
2022-10-22T03:20:50.686Z,99779.25
2022-10-22T03:23:20.154Z,99785.22
2022-10-22T03:25:49.865Z,99784.63
2022-10-22T03:28:18.485Z,99788.06
2022-10-22T03:30:45.266Z,99790.00
2022-10-22T03:33:11.987Z,99795.72
2022-10-22T03:35:44.774Z,99789.03
2022-10-22T03:38:12.167Z,99803.72
2022-10-22T03:40:39.521Z,99817.44
2022-10-22T03:43:06.370Z,99806.09
2022-10-22T03:45:33.292Z,99824.13
2022-10-22T03:48:00.147Z,99810.16
2022-10-22T03:50:26.986Z,99808.25
2022-10-22T03:52:53.829Z,99805.25
2022-10-22T03:55:20.890Z,99798.75
2022-10-22T03:57:47.633Z,99815.69
2022-10-22T04:00:14.672Z,99812.41
2022-10-22T04:02:41.512Z,99815.00
2022-10-22T04:05:08.501Z,99807.09
2022-10-22T04:07:35.369Z,99824.13
2022-10-22T04:10:02.165Z,99824.13
2022-10-22T04:12:28.936Z,99827.88
2022-10-22T04:14:55.676Z,99831.47
2022-10-22T04:17:22.488Z,99828.66
2022-10-22T04:19:49.180Z,99841.56
2022-10-22T04:22:15.939Z,99828.03
2022-10-22T04:24:42.679Z,99837.97
2022-10-22T04:27:09.426Z,99838.59
2022-10-22T04:29:36.518Z,99847.09
2022-10-22T04:32:03.293Z,99862.84
2022-10-22T04:34:30.226Z,99857.72
2022-10-22T04:36:57.158Z,99855.81
2022-10-22T04:39:23.902Z,99860.56
2022-10-22T04:41:50.751Z,99866.66
2022-10-22T04:44:18.224Z,99863.75
2022-10-22T04:46:45.692Z,99863.47
2022-10-22T04:49:12.589Z,99871.75
2022-10-22T04:51:39.406Z,99898.84
2022-10-22T04:54:06.441Z,99893.13
2022-10-22T04:56:33.239Z,99904.34
2022-10-22T04:59:02.841Z,99915.09
2022-10-22T05:01:41.699Z,99921.19
2022-10-22T05:04:13.430Z,99922.31
2022-10-22T05:06:40.229Z,99927.34
2022-10-22T05:09:10.890Z,99929.28
2022-10-22T05:11:41.753Z,99941.22
2022-10-22T05:14:10.242Z,99929.78
2022-10-22T05:16:38.606Z,99938.25
2022-10-22T05:19:06.508Z,99937.53
2022-10-22T05:21:33.718Z,99935.75
2022-10-22T05:24:00.896Z,99929.91
2022-10-22T05:26:28.978Z,99935.53
2022-10-22T05:28:55.933Z,99940.16
2022-10-22T05:31:22.774Z,99929.06
2022-10-22T05:33:49.682Z,99956.09
2022-10-22T05:36:19.300Z,99954.66
2022-10-22T05:38:46.345Z,99957.28
2022-10-22T05:41:18.410Z,99952.56
2022-10-22T05:43:45.208Z,99955.66
2022-10-22T05:46:22.210Z,99934.00
2022-10-22T05:49:01.364Z,99958.28
2022-10-22T05:51:31.445Z,99957.34
2022-10-22T05:54:03.632Z,99948.97
2022-10-22T05:56:32.285Z,99947.81
2022-10-22T05:58:59.660Z,99960.00
2022-10-22T06:01:32.219Z,99965.63
2022-10-22T06:04:01.409Z,99968.50
2022-10-22T06:06:35.661Z,99963.78
2022-10-22T06:09:11.274Z,99974.16
2022-10-22T06:11:38.325Z,99973.72
2022-10-22T06:14:05.292Z,99965.69
2022-10-22T06:16:32.442Z,99986.09
2022-10-22T06:19:02.199Z,99983.25
2022-10-22T06:21:29.766Z,99968.81
2022-10-22T06:23:58.133Z,99973.00
2022-10-22T06:26:25.078Z,99993.00
2022-10-22T06:28:52.184Z,99984.00
2022-10-22T06:31:18.980Z,99993.53
2022-10-22T06:33:45.767Z,99993.94
2022-10-22T06:36:18.302Z,100004.31
2022-10-22T06:38:45.310Z,100009.66
2022-10-22T06:41:14.293Z,100016.44
2022-10-22T06:43:45.414Z,100011.53
2022-10-22T06:46:17.421Z,100025.16
2022-10-22T06:48:51.586Z,100016.78
2022-10-22T06:51:19.235Z,100024.44
2022-10-22T06:53:45.945Z,100021.81
2022-10-22T06:56:15.271Z,100009.75
2022-10-22T06:58:42.630Z,100022.88
2022-10-22T07:01:12.571Z,100031.00
2022-10-22T07:03:40.480Z,100040.34
2022-10-22T07:06:13.342Z,100046.84
2022-10-22T07:08:41.385Z,100034.56
2022-10-22T07:11:14.010Z,100044.56
2022-10-22T07:13:41.196Z,100051.34
2022-10-22T07:16:09.329Z,100041.78
2022-10-22T07:18:37.402Z,100050.50
2022-10-22T07:21:05.492Z,100060.38
2022-10-22T07:23:32.518Z,100055.13
2022-10-22T07:26:02.722Z,100060.19
2022-10-22T07:28:31.052Z,100048.97
2022-10-22T07:30:57.842Z,100059.00
2022-10-22T07:33:24.596Z,100070.13
2022-10-22T07:35:51.319Z,100049.78
2022-10-22T07:38:18.112Z,100076.13
2022-10-22T07:40:44.832Z,100070.63
2022-10-22T07:43:11.559Z,100074.63
2022-10-22T07:45:39.194Z,100076.59
2022-10-22T07:48:06.522Z,100085.72
2022-10-22T07:50:33.387Z,100091.16
2022-10-22T07:53:00.261Z,100094.28
2022-10-22T07:55:27.148Z,100092.34
2022-10-22T07:57:54.146Z,100103.22
2022-10-22T08:00:24.472Z,100116.38
2022-10-22T08:02:52.532Z,100111.59
2022-10-22T08:05:19.882Z,100117.47
2022-10-22T08:07:46.675Z,100109.97
2022-10-22T08:10:13.976Z,100129.38
2022-10-22T08:12:41.308Z,100129.59
2022-10-22T08:15:09.090Z,100130.13
2022-10-22T08:17:37.290Z,100126.03
2022-10-22T08:20:04.317Z,100133.59
2022-10-22T08:22:31.092Z,100125.31
2022-10-22T08:24:57.804Z,100136.22
2022-10-22T08:27:24.559Z,100138.22
2022-10-22T08:29:51.278Z,100151.75
2022-10-22T08:32:18.051Z,100145.53
2022-10-22T08:34:44.855Z,100157.06
2022-10-22T08:37:14.482Z,100155.91
2022-10-22T08:39:41.610Z,100146.25
2022-10-22T08:42:29.756Z,100165.53
2022-10-22T08:44:56.424Z,100168.66
2022-10-22T08:47:48.225Z,100171.91
2022-10-22T08:50:22.919Z,100162.84
2022-10-22T08:52:55.354Z,100173.63
2022-10-22T08:55:24.993Z,100178.81
2022-10-22T08:58:02.022Z,100171.47
2022-10-22T09:00:36.930Z,100173.44
2022-10-22T09:03:27.085Z,100184.53
2022-10-22T09:06:05.613Z,100176.88
2022-10-22T09:08:32.684Z,100197.63
2022-10-22T09:11:06.803Z,100183.78
2022-10-22T09:13:33.600Z,100189.31
2022-10-22T09:16:14.319Z,100186.47
2022-10-22T09:19:16.421Z,100209.19
2022-10-22T09:22:08.678Z,100203.94
2022-10-22T09:24:46.174Z,100198.56
2022-10-22T09:27:18.151Z,100216.31
2022-10-22T09:29:47.268Z,100208.28
2022-10-22T09:32:15.994Z,100200.91
2022-10-22T09:34:45.487Z,100213.25
2022-10-22T09:37:12.560Z,100213.00
2022-10-22T09:39:41.885Z,100218.84
2022-10-22T09:42:10.303Z,100215.53
2022-10-22T09:44:38.976Z,100218.44
2022-10-22T09:47:08.046Z,100203.25
2022-10-22T09:49:36.614Z,100198.34
2022-10-22T09:52:03.550Z,100206.31
2022-10-22T09:54:33.351Z,100208.13
2022-10-22T09:57:17.757Z,100208.94
2022-10-22T09:59:47.500Z,100213.34
2022-10-22T10:02:26.813Z,100224.97
2022-10-22T10:05:05.000Z,100210.38
2022-10-22T10:07:34.400Z,100203.84
2022-10-22T10:10:01.378Z,100216.94
2022-10-22T10:15:29.870Z,100227.75
2022-10-22T10:18:18.277Z,100229.69
2022-10-22T10:20:50.673Z,100222.19
2022-10-22T10:23:36.540Z,100225.69
2022-10-22T10:26:13.297Z,100225.22
2022-10-22T10:28:55.941Z,100229.97
2022-10-22T10:31:42.850Z,100226.81
2022-10-22T10:34:53.164Z,100224.31
2022-10-22T10:37:30.005Z,100221.53
2022-10-22T10:40:21.233Z,100237.50
2022-10-22T10:43:11.996Z,100222.19
2022-10-22T10:46:01.168Z,100235.25
2022-10-22T10:48:35.291Z,100245.47
2022-10-22T10:51:25.978Z,100233.50
2022-10-22T10:54:16.704Z,100235.22
2022-10-22T10:56:58.577Z,100244.38
2022-10-22T10:59:58.797Z,100264.06
2022-10-22T11:02:47.627Z,100261.84
2022-10-22T11:05:41.376Z,100265.34
2022-10-22T11:08:46.091Z,100258.00
2022-10-22T11:11:21.638Z,100262.22
2022-10-22T11:14:03.325Z,100267.19
2022-10-22T11:16:45.213Z,100225.16
2022-10-22T11:19:50.321Z,100266.38
2022-10-22T11:22:26.774Z,100235.50
2022-10-22T11:25:05.239Z,100243.84
2022-10-22T11:27:47.774Z,100273.91
2022-10-22T11:30:22.512Z,100217.84
2022-10-22T11:32:55.122Z,100213.22
2022-10-22T11:35:28.859Z,100230.75
2022-10-22T11:37:57.240Z,100226.34
2022-10-22T11:40:37.333Z,100231.56
2022-10-22T11:43:06.574Z,100251.28
2022-10-22T11:45:42.901Z,100246.00
2022-10-22T11:48:17.342Z,100270.81
2022-10-22T11:50:54.486Z,100259.00
2022-10-22T11:53:34.264Z,100185.44
2022-10-22T11:56:07.177Z,100275.50
2022-10-22T11:58:44.554Z,100276.41
2022-10-22T12:01:11.367Z,100271.13
2022-10-22T12:03:41.123Z,100275.91
2022-10-22T12:06:15.894Z,100269.06
2022-10-22T12:08:56.798Z,100242.06
2022-10-22T12:11:51.052Z,100226.38
2022-10-22T12:14:27.078Z,100202.88
2022-10-22T12:17:08.606Z,100183.25
2022-10-22T12:19:40.213Z,100228.34
2022-10-22T12:22:07.177Z,100248.97
2022-10-22T12:24:44.773Z,100247.28
2022-10-22T12:27:36.044Z,100217.50
2022-10-22T12:30:24.834Z,100181.03
2022-10-22T12:32:54.570Z,100199.97
2022-10-22T12:35:26.869Z,100149.59
2022-10-22T12:38:03.526Z,100203.31
2022-10-22T12:40:36.020Z,100234.34
2022-10-22T12:43:11.588Z,100196.63
2022-10-22T12:45:40.228Z,100198.53
2022-10-22T12:48:19.115Z,100216.00
2022-10-22T12:50:51.442Z,100210.06
2022-10-22T12:53:35.275Z,100237.50
2022-10-22T12:56:06.486Z,100181.53
2022-10-22T12:58:42.273Z,100251.13
2022-10-22T13:01:13.314Z,100180.09
2022-10-22T13:03:52.571Z,100197.06
2022-10-22T13:06:19.453Z,100238.44
2022-10-22T13:08:55.912Z,100192.50
2022-10-22T13:11:31.698Z,100192.47
2022-10-22T13:14:18.679Z,100154.34
2022-10-22T13:17:12.147Z,100234.34
2022-10-22T13:19:48.072Z,100235.66
2022-10-22T13:22:28.565Z,100194.72
2022-10-22T13:27:28.271Z,100187.00
2022-10-22T13:29:57.490Z,100154.38
2022-10-22T13:32:34.893Z,100188.78
2022-10-22T13:35:03.613Z,100214.13
2022-10-22T13:37:32.617Z,100178.31
2022-10-22T13:39:59.631Z,100183.38
2022-10-22T13:42:26.723Z,100203.69
2022-10-22T13:44:53.637Z,100197.31
2022-10-22T13:47:29.439Z,100245.03
2022-10-22T13:50:03.468Z,100212.44
2022-10-22T13:52:37.557Z,100171.97
2022-10-22T13:55:20.771Z,100228.53
2022-10-22T13:57:48.399Z,100202.28
2022-10-22T14:00:20.781Z,100233.56
2022-10-22T14:02:50.735Z,100174.91
2022-10-22T14:05:18.647Z,100202.91
2022-10-22T14:07:46.025Z,100158.66
2022-10-22T14:10:17.670Z,100199.81
2022-10-22T14:12:47.285Z,100214.97
2022-10-22T14:15:19.399Z,100221.44
2022-10-22T14:17:55.423Z,100175.66
2022-10-22T14:20:24.857Z,100219.94
2022-10-22T14:22:52.206Z,100181.81
2022-10-22T14:25:24.372Z,100165.88
2022-10-22T14:27:52.093Z,100200.59
2022-10-22T14:30:25.600Z,100152.28
2022-10-22T14:32:53.208Z,100182.00
2022-10-22T14:35:22.692Z,100158.63
2022-10-22T14:37:50.338Z,100190.19
2022-10-22T14:40:20.154Z,100190.69
2022-10-22T14:42:49.164Z,100148.06
2022-10-22T14:45:25.054Z,100149.84
2022-10-22T14:47:56.253Z,100183.34
2022-10-22T14:50:24.558Z,100224.56
2022-10-22T14:52:52.138Z,100191.31
2022-10-22T14:55:23.159Z,100205.41
2022-10-22T14:57:50.159Z,100220.28
2022-10-22T15:00:18.456Z,100192.38
2022-10-22T15:02:46.643Z,100180.50
2022-10-22T15:05:14.289Z,100214.75
2022-10-22T15:07:42.193Z,100127.16
2022-10-22T15:10:10.380Z,100178.13
2022-10-22T15:12:40.465Z,100160.41
2022-10-22T15:15:08.276Z,100170.09
2022-10-22T15:17:35.653Z,100171.53
2022-10-22T15:20:04.630Z,100159.28
2022-10-22T15:22:35.560Z,100186.69
2022-10-22T15:25:08.229Z,100228.59
2022-10-22T15:27:36.017Z,100179.47
2022-10-22T15:32:30.046Z,100191.38
2022-10-22T15:34:56.859Z,100219.19
2022-10-22T15:37:24.002Z,100218.75
2022-10-22T15:39:51.132Z,100164.06
2022-10-22T15:42:19.236Z,100174.13
2022-10-22T15:44:46.468Z,100172.00
2022-10-22T15:47:13.379Z,100225.28
2022-10-22T15:49:41.928Z,100139.13
2022-10-22T15:52:10.013Z,100169.66
2022-10-22T15:54:37.141Z,100173.41
2022-10-22T15:57:08.562Z,100167.53
2022-10-22T15:59:36.844Z,100202.44
2022-10-22T16:02:04.444Z,100184.56
2022-10-22T16:04:31.304Z,100178.59
2022-10-22T16:06:58.250Z,100134.13
2022-10-22T16:09:27.457Z,100191.59
2022-10-22T16:11:55.173Z,100114.09
2022-10-22T16:14:24.269Z,100192.72
2022-10-22T16:16:53.344Z,100130.38
2022-10-22T16:19:22.410Z,100178.91
2022-10-22T16:21:54.264Z,100142.28
2022-10-22T16:24:22.485Z,100186.84
2022-10-22T16:26:49.582Z,100201.44
2022-10-22T16:29:16.848Z,100184.47
2022-10-22T16:31:46.658Z,100176.78
2022-10-22T16:34:13.645Z,100199.09
2022-10-22T16:36:42.017Z,100235.72
2022-10-22T16:39:09.159Z,100197.84
2022-10-22T16:41:36.560Z,100210.25
2022-10-22T16:44:06.266Z,100161.50
2022-10-22T16:46:33.830Z,100230.00
2022-10-22T16:49:00.871Z,100174.88
2022-10-22T16:51:29.111Z,100168.16
2022-10-22T16:53:57.419Z,100179.03
2022-10-22T16:56:25.849Z,100207.88
2022-10-22T16:58:55.389Z,100243.66
2022-10-22T17:01:26.459Z,100237.53
2022-10-22T17:03:56.921Z,100236.53
2022-10-22T17:06:24.904Z,100234.97
2022-10-22T17:08:51.920Z,100230.03
2022-10-22T17:11:21.240Z,100234.38
2022-10-22T17:13:49.568Z,100250.22
2022-10-22T17:16:18.980Z,100230.16
2022-10-22T17:21:14.399Z,100242.94
2022-10-22T17:23:42.819Z,100253.25
2022-10-22T17:26:15.315Z,100157.94
2022-10-22T17:28:42.118Z,100153.19
2022-10-22T17:31:15.421Z,100197.19
2022-10-22T17:33:42.633Z,100215.28
2022-10-22T17:36:12.947Z,100168.13
2022-10-22T17:38:42.150Z,100233.00
2022-10-22T17:41:14.545Z,100234.47
2022-10-22T17:43:41.704Z,100198.94
2022-10-22T17:46:14.372Z,100252.34
2022-10-22T17:48:41.152Z,100230.50
2022-10-22T17:51:09.215Z,100237.38
2022-10-22T17:53:38.771Z,100250.00
2022-10-22T17:56:10.314Z,100206.16
2022-10-22T17:58:38.566Z,100244.69
2022-10-22T18:01:06.638Z,100249.97
2022-10-22T18:03:34.478Z,100242.81
2022-10-22T18:06:08.841Z,100262.22
2022-10-22T18:08:36.124Z,100261.53
2022-10-22T18:11:11.538Z,100231.00
2022-10-22T18:13:38.850Z,100207.91
2022-10-22T18:16:06.094Z,100199.06
2022-10-22T18:18:34.918Z,100167.59
2022-10-22T18:21:02.558Z,100248.38
2022-10-22T18:23:29.359Z,100256.84
2022-10-22T18:25:56.177Z,100272.63
2022-10-22T18:28:23.019Z,100264.97
2022-10-22T18:30:49.820Z,100274.19
2022-10-22T18:33:19.027Z,100278.81
2022-10-22T18:35:48.667Z,100185.81
2022-10-22T18:38:15.544Z,100182.81
2022-10-22T18:40:46.985Z,100219.28
2022-10-22T18:43:15.075Z,100241.69
2022-10-22T18:45:45.823Z,100230.13
2022-10-22T18:48:18.905Z,100224.25
2022-10-22T18:50:47.349Z,100249.47
2022-10-22T18:53:16.169Z,100263.88
2022-10-22T18:55:43.331Z,100242.22
2022-10-22T18:58:10.233Z,100245.69
2022-10-22T19:00:39.500Z,100180.09
2022-10-22T19:03:06.861Z,100288.97
2022-10-22T19:05:34.385Z,100261.00
2022-10-22T19:08:01.182Z,100234.59
2022-10-22T19:10:28.226Z,100198.09
2022-10-22T19:12:55.110Z,100255.34
2022-10-22T19:15:21.949Z,100277.78
2022-10-22T19:17:48.864Z,100255.28
2022-10-22T19:20:15.608Z,100290.97
2022-10-22T19:22:42.478Z,100271.97
2022-10-22T19:25:11.970Z,100274.69
2022-10-22T19:27:40.914Z,100249.31
2022-10-22T19:30:08.449Z,100271.53
2022-10-22T19:32:35.566Z,100229.16
2022-10-22T19:35:02.641Z,100272.38
2022-10-22T19:37:29.442Z,100276.03
2022-10-22T19:39:56.317Z,100261.34
2022-10-22T19:42:23.043Z,100275.75
2022-10-22T19:44:49.948Z,100280.78
2022-10-22T19:47:17.024Z,100279.44
2022-10-22T19:49:43.792Z,100273.66
2022-10-22T19:52:10.632Z,100279.34
2022-10-22T19:54:40.952Z,100279.97
2022-10-22T19:57:08.834Z,100285.75
2022-10-22T19:59:35.864Z,100294.03
2022-10-22T20:02:02.739Z,100286.47
2022-10-22T20:04:30.186Z,100277.88
2022-10-22T20:06:57.275Z,100257.09
2022-10-22T20:09:24.287Z,100274.50
2022-10-22T20:11:51.088Z,100257.59
2022-10-22T20:14:17.986Z,100280.16
2022-10-22T20:16:45.333Z,100276.78
2022-10-22T20:19:16.267Z,100287.81
2022-10-22T20:21:43.895Z,100294.00
2022-10-22T20:24:11.443Z,100286.34
2022-10-22T20:26:38.676Z,100293.69
2022-10-22T20:29:05.508Z,100296.00
2022-10-22T20:31:33.222Z,100284.53
2022-10-22T20:34:01.495Z,100278.13
2022-10-22T20:36:29.909Z,100269.75
2022-10-22T20:39:07.198Z,100296.47
2022-10-22T20:41:35.188Z,100288.50
2022-10-22T20:44:02.010Z,100280.50
2022-10-22T20:46:31.097Z,100281.13
2022-10-22T20:49:17.747Z,100276.91
2022-10-22T20:51:44.761Z,100284.63
2022-10-22T20:54:12.085Z,100286.63
2022-10-22T20:56:40.859Z,100288.88
2022-10-22T20:59:10.871Z,100291.72
2022-10-22T21:01:45.044Z,100292.25
2022-10-22T21:04:12.009Z,100300.03
2022-10-22T21:06:40.401Z,100288.38
2022-10-22T21:09:09.082Z,100298.03
2022-10-22T21:11:37.318Z,100304.31
2022-10-22T21:14:06.030Z,100288.53
2022-10-22T21:16:33.724Z,100286.75
2022-10-22T21:19:00.816Z,100302.47
2022-10-22T21:21:28.029Z,100284.84
2022-10-22T21:23:54.894Z,100290.38
2022-10-22T21:26:21.896Z,100308.09
2022-10-22T21:28:48.812Z,100289.34
2022-10-22T21:31:22.097Z,100294.25
2022-10-22T21:33:50.385Z,100295.56
2022-10-22T21:36:22.387Z,100295.47
2022-10-22T21:38:53.812Z,100271.09
2022-10-22T21:41:23.008Z,100278.44
2022-10-22T21:43:50.818Z,100258.66
2022-10-22T21:46:20.223Z,100261.06
2022-10-22T21:48:47.656Z,100263.72
2022-10-22T21:51:17.073Z,100233.28
2022-10-22T21:53:44.370Z,100231.16
2022-10-22T21:56:20.452Z,100213.56
2022-10-22T21:58:48.343Z,100217.91
2022-10-22T22:01:16.544Z,100191.72
2022-10-22T22:03:45.796Z,100199.84
2022-10-22T22:06:13.077Z,100195.56
2022-10-22T22:08:40.150Z,100182.97
2022-10-22T22:11:18.554Z,100152.03
2022-10-22T22:13:45.549Z,100181.94
2022-10-22T22:16:16.081Z,100178.50
2022-10-22T22:18:42.969Z,100225.31
2022-10-22T22:21:13.052Z,100168.81
2022-10-22T22:23:42.327Z,100183.53
2022-10-22T22:26:09.626Z,100207.50
2022-10-22T22:28:37.248Z,100195.28
2022-10-22T22:31:22.640Z,100220.66
2022-10-22T22:33:49.615Z,100137.47
2022-10-22T22:36:16.473Z,100125.53
2022-10-22T22:38:43.363Z,100180.09
2022-10-22T22:41:10.225Z,100205.00
2022-10-22T22:43:38.591Z,100155.66
2022-10-22T22:46:12.637Z,100132.22
2022-10-22T22:48:40.274Z,100186.53
2022-10-22T22:51:07.908Z,100183.91
2022-10-22T22:53:35.828Z,100126.03
2022-10-22T22:56:14.823Z,100178.78
2022-10-22T22:58:43.467Z,100165.88
2022-10-22T23:01:23.859Z,100186.34
2022-10-22T23:04:10.853Z,100179.03
2022-10-22T23:06:38.590Z,100153.19
2022-10-22T23:09:07.449Z,100109.78
2022-10-22T23:11:34.705Z,100194.69
2022-10-22T23:14:04.255Z,100123.41
2022-10-22T23:16:33.340Z,100199.03
2022-10-22T23:19:00.839Z,100195.03
2022-10-22T23:21:37.493Z,100181.06
2022-10-22T23:24:07.831Z,100186.31
2022-10-22T23:26:41.669Z,100191.84
2022-10-22T23:29:18.456Z,100194.25
2022-10-22T23:31:46.752Z,100192.06
2022-10-22T23:34:17.242Z,100185.38
2022-10-22T23:36:44.453Z,100189.31
2022-10-22T23:39:17.131Z,100159.88
2022-10-22T23:41:44.165Z,100185.97
2022-10-22T23:44:11.406Z,100167.31
2022-10-22T23:46:39.156Z,100180.59
2022-10-22T23:49:07.422Z,100153.69
2022-10-22T23:51:34.337Z,100169.72
2022-10-22T23:54:06.253Z,100170.53
2022-10-22T23:56:33.875Z,100122.47
2022-10-22T23:59:00.835Z,100102.13
